Roblin, Canada
Current Conditions -  °F | °C
As of 4:00 PM on Friday 24 Oct 2014 (Local Time) from CYQV Reporting Station
Clear Clear  
Wind Chill: 55°   Ceiling: Unl
Heat Index: 55°   Visibility: 9mi
Dew Point: 32°   Wind: 28mph
Humidity: 41%   Direction: 280°W
Pressure: 29.69"   Gusts: 39mph
Location:  51.23°N, 101.35°W
Report Text: CYQV 242100Z AUTO 28024G34KT 9SM CLR 13/00 A2969 RMK SLP066 DENSITY ALT 2000FT
Loading
Personal Weather Stations






























Interactive Weather Map New forecast layout! Learn more

10-Day Weather Forecast

Advertisements
Track Severe Weather on mobile